Terminal Aerodrome Forecast
Issued by NWS

Home | Current Version | Previous Version | Text Only | Print | Product List | Glossary On
Versions: 1 2 3 4 5 6 7 8 9 10 11 12 13 14 15
000
FTUS41 KBTV 302330
TAFMPV
TAF
KMPV 302330Z 3100/3124 24005KT P6SM FEW060
     FM310600 25003KT 4SM BR SCT001
     FM310700 00000KT 1SM BR SCT001
     FM311200 29009G17KT P6SM SCT045
     FM311600 27008KT P6SM SCT150=

USA.gov is the U.S. government's official web portal to all federal, state and local government web resources and services.